sensor_id;sensor_type;location;lat;lon;timestamp;pressure;altitude;pressure_sealevel;temperature
13219;BMP180;6674;49.152;11.918;2022-12-29T00:01:57;95757.19;;;2.71
13219;BMP180;6674;49.152;11.918;2022-12-29T00:04:25;95765.94;;;2.69
13219;BMP180;6674;49.152;11.918;2022-12-29T00:06:53;95762.09;;;2.73
13219;BMP180;6674;49.152;11.918;2022-12-29T00:09:19;95752.38;;;2.76
13219;BMP180;6674;49.152;11.918;2022-12-29T00:11:46;95748.38;;;2.74
13219;BMP180;6674;49.152;11.918;2022-12-29T00:14:13;95766.50;;;2.79
13219;BMP180;6674;49.152;11.918;2022-12-29T00:16:57;95755.34;;;2.80
13219;BMP180;6674;49.152;11.918;2022-12-29T00:19:24;95748.50;;;2.80
13219;BMP180;6674;49.152;11.918;2022-12-29T00:22:10;95749.91;;;2.83
13219;BMP180;6674;49.152;11.918;2022-12-29T00:24:54;95740.34;;;2.85
13219;BMP180;6674;49.152;11.918;2022-12-29T00:27:39;95734.03;;;2.81
13219;BMP180;6674;49.152;11.918;2022-12-29T00:30:23;95738.31;;;2.80
13219;BMP180;6674;49.152;11.918;2022-12-29T00:33:09;95727.34;;;2.80
13219;BMP180;6674;49.152;11.918;2022-12-29T00:35:55;95726.00;;;2.84
13219;BMP180;6674;49.152;11.918;2022-12-29T00:38:25;95739.56;;;2.84
13219;BMP180;6674;49.152;11.918;2022-12-29T00:41:10;95725.06;;;2.85
13219;BMP180;6674;49.152;11.918;2022-12-29T00:43:54;95724.88;;;2.86
13219;BMP180;6674;49.152;11.918;2022-12-29T00:46:36;95732.97;;;2.90
13219;BMP180;6674;49.152;11.918;2022-12-29T00:49:03;95724.72;;;2.88
13219;BMP180;6674;49.152;11.918;2022-12-29T00:51:54;95724.72;;;2.88
13219;BMP180;6674;49.152;11.918;2022-12-29T00:54:22;95723.94;;;2.87
13219;BMP180;6674;49.152;11.918;2022-12-29T00:56:50;95723.13;;;2.87
13219;BMP180;6674;49.152;11.918;2022-12-29T00:59:17;95708.28;;;2.90
13219;BMP180;6674;49.152;11.918;2022-12-29T01:01:45;95718.91;;;2.94
13219;BMP180;6674;49.152;11.918;2022-12-29T01:04:12;95706.47;;;2.99
13219;BMP180;6674;49.152;11.918;2022-12-29T01:06:39;95710.41;;;3.01
13219;BMP180;6674;49.152;11.918;2022-12-29T01:09:07;95713.38;;;3.04
13219;BMP180;6674;49.152;11.918;2022-12-29T01:11:53;95710.84;;;3.04
13219;BMP180;6674;49.152;11.918;2022-12-29T01:14:20;95720.06;;;3.05
13219;BMP180;6674;49.152;11.918;2022-12-29T01:16:47;95715.59;;;3.07
13219;BMP180;6674;49.152;11.918;2022-12-29T01:19:15;95718.47;;;3.04
13219;BMP180;6674;49.152;11.918;2022-12-29T01:21:42;95714.81;;;3.07
13219;BMP180;6674;49.152;11.918;2022-12-29T01:24:09;95721.63;;;3.06
13219;BMP180;6674;49.152;11.918;2022-12-29T01:26:35;95720.84;;;3.06
13219;BMP180;6674;49.152;11.918;2022-12-29T01:29:03;95717.00;;;3.10
13219;BMP180;6674;49.152;11.918;2022-12-29T01:31:30;95725.09;;;3.13
13219;BMP180;6674;49.152;11.918;2022-12-29T01:33:57;95717.00;;;3.10
13219;BMP180;6674;49.152;11.918;2022-12-29T01:36:23;95707.06;;;3.15
13219;BMP180;6674;49.152;11.918;2022-12-29T01:38:50;95702.41;;;3.18
13219;BMP180;6674;49.152;11.918;2022-12-29T01:41:17;95707.84;;;3.15
13219;BMP180;6674;49.152;11.918;2022-12-29T01:43:46;95720.25;;;3.18
13219;BMP180;6674;49.152;11.918;2022-12-29T01:46:23;95705.22;;;3.23
13219;BMP180;6674;49.152;11.918;2022-12-29T01:48:53;95699.69;;;3.20
13219;BMP180;6674;49.152;11.918;2022-12-29T01:51:21;95709.72;;;3.21
13219;BMP180;6674;49.152;11.918;2022-12-29T01:53:50;95695.56;;;3.19
13219;BMP180;6674;49.152;11.918;2022-12-29T01:56:18;95699.25;;;3.16
13219;BMP180;6674;49.152;11.918;2022-12-29T01:58:49;95691.31;;;3.11
13219;BMP180;6674;49.152;11.918;2022-12-29T02:01:19;95678.41;;;3.13
13219;BMP180;6674;49.152;11.918;2022-12-29T02:03:47;95678.78;;;3.10
13219;BMP180;6674;49.152;11.918;2022-12-29T02:06:20;95678.16;;;3.08
13219;BMP180;6674;49.152;11.918;2022-12-29T02:08:49;95674.38;;;3.04
13219;BMP180;6674;49.152;11.918;2022-12-29T02:11:17;95674.03;;;3.07
13219;BMP180;6674;49.152;11.918;2022-12-29T02:13:43;95676.75;;;3.05
13219;BMP180;6674;49.152;11.918;2022-12-29T02:16:20;95675.78;;;3.06
13219;BMP180;6674;49.152;11.918;2022-12-29T02:18:59;95675.88;;;2.99
13219;BMP180;6674;49.152;11.918;2022-12-29T02:21:45;95673.22;;;3.06
13219;BMP180;6674;49.152;11.918;2022-12-29T02:27:52;95681.50;;;3.08
13219;BMP180;6674;49.152;11.918;2022-12-29T02:30:42;95681.69;;;3.07
13219;BMP180;6674;49.152;11.918;2022-12-29T02:33:20;95687.22;;;3.10
13219;BMP180;6674;49.152;11.918;2022-12-29T02:35:54;95675.44;;;3.09
13219;BMP180;6674;49.152;11.918;2022-12-29T02:38:33;95658.84;;;3.13
13219;BMP180;6674;49.152;11.918;2022-12-29T02:41:06;95659.19;;;3.10
13219;BMP180;6674;49.152;11.918;2022-12-29T02:43:39;95659.44;;;3.15
13219;BMP180;6674;49.152;11.918;2022-12-29T02:46:15;95654.69;;;3.12
13219;BMP180;6674;49.152;11.918;2022-12-29T02:48:44;95661.13;;;3.08
13219;BMP180;6674;49.152;11.918;2022-12-29T02:51:15;95658.75;;;3.07
13219;BMP180;6674;49.152;11.918;2022-12-29T02:53:45;95653.75;;;3.13
13219;BMP180;6674;49.152;11.918;2022-12-29T02:56:29;95650.94;;;3.08
13219;BMP180;6674;49.152;11.918;2022-12-29T02:58:56;95648.22;;;3.10
13219;BMP180;6674;49.152;11.918;2022-12-29T03:01:31;95648.38;;;3.08
13219;BMP180;6674;49.152;11.918;2022-12-29T03:04:14;95646.00;;;3.07
13219;BMP180;6674;49.152;11.918;2022-12-29T03:06:52;95656.91;;;3.15
13219;BMP180;6674;49.152;11.918;2022-12-29T03:09:28;95656.19;;;3.21
13219;BMP180;6674;49.152;11.918;2022-12-29T03:12:05;95648.34;;;3.23
13219;BMP180;6674;49.152;11.918;2022-12-29T03:14:39;95652.13;;;3.27
13219;BMP180;6674;49.152;11.918;2022-12-29T03:17:27;95651.97;;;3.28
13219;BMP180;6674;49.152;11.918;2022-12-29T03:20:00;95651.22;;;3.34
13219;BMP180;6674;49.152;11.918;2022-12-29T03:22:31;95647.53;;;3.37
13219;BMP180;6674;49.152;11.918;2022-12-29T03:25:03;95640.25;;;3.34
13219;BMP180;6674;49.152;11.918;2022-12-29T03:27:32;95640.69;;;3.37
13219;BMP180;6674;49.152;11.918;2022-12-29T03:30:03;95638.75;;;3.39
13219;BMP180;6674;49.152;11.918;2022-12-29T03:32:36;95638.38;;;3.42
13219;BMP180;6674;49.152;11.918;2022-12-29T03:35:05;95628.19;;;3.42
13219;BMP180;6674;49.152;11.918;2022-12-29T03:37:36;95628.59;;;3.45
13219;BMP180;6674;49.152;11.918;2022-12-29T03:40:07;95622.91;;;3.43
13219;BMP180;6674;49.152;11.918;2022-12-29T03:42:35;95629.00;;;3.42
13219;BMP180;6674;49.152;11.918;2022-12-29T03:45:04;95616.59;;;3.40
13219;BMP180;6674;49.152;11.918;2022-12-29T03:47:32;95614.06;;;3.40
13219;BMP180;6674;49.152;11.918;2022-12-29T03:49:59;95621.63;;;3.33
13219;BMP180;6674;49.152;11.918;2022-12-29T03:52:25;95614.75;;;3.34
13219;BMP180;6674;49.152;11.918;2022-12-29T03:54:52;95618.72;;;3.36
13219;BMP180;6674;49.152;11.918;2022-12-29T03:57:18;95619.94;;;3.40
13219;BMP180;6674;49.152;11.918;2022-12-29T03:59:45;95623.81;;;3.36
13219;BMP180;6674;49.152;11.918;2022-12-29T04:02:12;95623.47;;;3.39
13219;BMP180;6674;49.152;11.918;2022-12-29T04:04:40;95605.72;;;3.31
13219;BMP180;6674;49.152;11.918;2022-12-29T04:07:07;95616.00;;;3.38
13219;BMP180;6674;49.152;11.918;2022-12-29T04:09:33;95619.94;;;3.40
13219;BMP180;6674;49.152;11.918;2022-12-29T04:12:00;95620.34;;;3.43
13219;BMP180;6674;49.152;11.918;2022-12-29T04:14:26;95629.50;;;3.52
13219;BMP180;6674;49.152;11.918;2022-12-29T04:16:53;95618.13;;;3.55
13219;BMP180;6674;49.152;11.918;2022-12-29T04:19:19;95618.69;;;3.50
13219;BMP180;6674;49.152;11.918;2022-12-29T04:21:47;95620.69;;;3.55
13219;BMP180;6674;49.152;11.918;2022-12-29T04:24:14;95625.78;;;3.55
13219;BMP180;6674;49.152;11.918;2022-12-29T04:26:40;95631.88;;;3.54
13219;BMP180;6674;49.152;11.918;2022-12-29T04:29:07;95632.03;;;3.52
13219;BMP180;6674;49.152;11.918;2022-12-29T04:31:34;95640.28;;;3.54
13219;BMP180;6674;49.152;11.918;2022-12-29T04:34:00;95635.78;;;3.56
13219;BMP180;6674;49.152;11.918;2022-12-29T04:36:27;95639.50;;;3.54
13219;BMP180;6674;49.152;11.918;2022-12-29T04:38:55;95635.38;;;3.53
13219;BMP180;6674;49.152;11.918;2022-12-29T04:41:22;95629.91;;;3.56
13219;BMP180;6674;49.152;11.918;2022-12-29T04:43:49;95632.66;;;3.54
13219;BMP180;6674;49.152;11.918;2022-12-29T04:46:16;95634.41;;;3.54
13219;BMP180;6674;49.152;11.918;2022-12-29T04:48:42;95632.41;;;3.49
13219;BMP180;6674;49.152;11.918;2022-12-29T04:51:09;95638.28;;;3.50
13219;BMP180;6674;49.152;11.918;2022-12-29T04:53:36;95628.25;;;3.48
13219;BMP180;6674;49.152;11.918;2022-12-29T04:56:04;95638.44;;;3.48
13219;BMP180;6674;49.152;11.918;2022-12-29T04:58:31;95638.44;;;3.48
13219;BMP180;6674;49.152;11.918;2022-12-29T05:00:58;95631.91;;;3.40
13219;BMP180;6674;49.152;11.918;2022-12-29T05:03:24;95628.56;;;3.39
13219;BMP180;6674;49.152;11.918;2022-12-29T05:05:53;95639.13;;;3.36
13219;BMP180;6674;49.152;11.918;2022-12-29T05:08:19;95633.13;;;3.29
13219;BMP180;6674;49.152;11.918;2022-12-29T05:10:46;95630.59;;;3.29
13219;BMP180;6674;49.152;11.918;2022-12-29T05:13:14;95634.72;;;3.30
13219;BMP180;6674;49.152;11.918;2022-12-29T05:15:41;95638.22;;;3.29
13219;BMP180;6674;49.152;11.918;2022-12-29T05:18:07;95642.38;;;3.30
13219;BMP180;6674;49.152;11.918;2022-12-29T05:20:34;95635.06;;;3.27
13219;BMP180;6674;49.152;11.918;2022-12-29T05:23:00;95623.75;;;3.30
13219;BMP180;6674;49.152;11.918;2022-12-29T05:25:27;95626.47;;;3.28
13219;BMP180;6674;49.152;11.918;2022-12-29T05:27:53;95619.44;;;3.30
13219;BMP180;6674;49.152;11.918;2022-12-29T05:30:21;95620.78;;;3.26
13219;BMP180;6674;49.152;11.918;2022-12-29T05:32:48;95625.69;;;3.28
13219;BMP180;6674;49.152;11.918;2022-12-29T05:35:14;95625.97;;;3.18
13219;BMP180;6674;49.152;11.918;2022-12-29T05:37:41;95629.13;;;3.20
13219;BMP180;6674;49.152;11.918;2022-12-29T05:40:08;95625.63;;;3.21
13219;BMP180;6674;49.152;11.918;2022-12-29T05:42:35;95623.59;;;3.17
13219;BMP180;6674;49.152;11.918;2022-12-29T05:45:01;95621.22;;;3.15
13219;BMP180;6674;49.152;11.918;2022-12-29T05:47:29;95623.50;;;3.10
13219;BMP180;6674;49.152;11.918;2022-12-29T05:49:56;95608.22;;;3.10
13219;BMP180;6674;49.152;11.918;2022-12-29T05:52:23;95613.94;;;3.12
13219;BMP180;6674;49.152;11.918;2022-12-29T05:54:49;95616.81;;;3.09
13219;BMP180;6674;49.152;11.918;2022-12-29T05:57:16;95621.22;;;3.15
13219;BMP180;6674;49.152;11.918;2022-12-29T05:59:42;95622.81;;;3.16
13219;BMP180;6674;49.152;11.918;2022-12-29T06:02:09;95625.78;;;3.20
13219;BMP180;6674;49.152;11.918;2022-12-29T06:04:37;95625.22;;;3.24
13219;BMP180;6674;49.152;11.918;2022-12-29T06:07:04;95623.31;;;3.26
13219;BMP180;6674;49.152;11.918;2022-12-29T06:09:30;95623.56;;;3.31
13219;BMP180;6674;49.152;11.918;2022-12-29T06:11:57;95628.28;;;3.34
13219;BMP180;6674;49.152;11.918;2022-12-29T06:14:24;95628.75;;;3.38
13219;BMP180;6674;49.152;11.918;2022-12-29T06:16:50;95631.72;;;3.41
13219;BMP180;6674;49.152;11.918;2022-12-29T06:19:17;95631.53;;;3.42
13219;BMP180;6674;49.152;11.918;2022-12-29T06:21:45;95632.56;;;3.48
13219;BMP180;6674;49.152;11.918;2022-12-29T06:24:11;95615.50;;;3.48
13219;BMP180;6674;49.152;11.918;2022-12-29T06:26:38;95623.59;;;3.52
13219;BMP180;6674;49.152;11.918;2022-12-29T06:29:05;95626.34;;;3.50
13219;BMP180;6674;49.152;11.918;2022-12-29T06:31:32;95627.47;;;3.48
13219;BMP180;6674;49.152;11.918;2022-12-29T06:33:59;95621.25;;;3.50
13219;BMP180;6674;49.152;11.918;2022-12-29T06:36:25;95626.69;;;3.47
13219;BMP180;6674;49.152;11.918;2022-12-29T06:38:53;95631.38;;;3.44
13219;BMP180;6674;49.152;11.918;2022-12-29T06:41:20;95629.00;;;3.42
13219;BMP180;6674;49.152;11.918;2022-12-29T06:43:47;95635.81;;;3.42
13219;BMP180;6674;49.152;11.918;2022-12-29T06:46:13;95631.13;;;3.39
13219;BMP180;6674;49.152;11.918;2022-12-29T06:48:40;95643.41;;;3.36
13219;BMP180;6674;49.152;11.918;2022-12-29T06:51:07;95638.47;;;3.34
13219;BMP180;6674;49.152;11.918;2022-12-29T06:53:34;95638.06;;;3.31
13219;BMP180;6674;49.152;11.918;2022-12-29T06:56:02;95640.59;;;3.31
13219;BMP180;6674;49.152;11.918;2022-12-29T06:58:29;95644.31;;;3.28
13219;BMP180;6674;49.152;11.918;2022-12-29T07:00:55;95641.94;;;3.27
13219;BMP180;6674;49.152;11.918;2022-12-29T07:03:22;95649.22;;;3.30
13219;BMP180;6674;49.152;11.918;2022-12-29T07:05:48;95643.63;;;3.20
13219;BMP180;6674;49.152;11.918;2022-12-29T07:08:15;95640.09;;;3.21
13219;BMP180;6674;49.152;11.918;2022-12-29T07:10:41;95635.81;;;3.21
13219;BMP180;6674;49.152;11.918;2022-12-29T07:13:09;95645.38;;;3.19
13219;BMP180;6674;49.152;11.918;2022-12-29T07:15:36;95648.72;;;3.20
13219;BMP180;6674;49.152;11.918;2022-12-29T07:18:03;95646.97;;;3.20
13219;BMP180;6674;49.152;11.918;2022-12-29T07:20:30;95644.41;;;3.20
13219;BMP180;6674;49.152;11.918;2022-12-29T07:22:56;95641.78;;;3.14
13219;BMP180;6674;49.152;11.918;2022-12-29T07:25:23;95634.91;;;3.14
13219;BMP180;6674;49.152;11.918;2022-12-29T07:27:50;95632.19;;;3.16
13219;BMP180;6674;49.152;11.918;2022-12-29T07:30:18;95634.22;;;3.20
13219;BMP180;6674;49.152;11.918;2022-12-29T07:32:44;95631.41;;;3.15
13219;BMP180;6674;49.152;11.918;2022-12-29T07:35:11;95622.59;;;3.18
13219;BMP180;6674;49.152;11.918;2022-12-29T07:37:37;95629.66;;;3.16
13219;BMP180;6674;49.152;11.918;2022-12-29T07:40:05;95629.13;;;3.20
13219;BMP180;6674;49.152;11.918;2022-12-29T07:42:32;95634.56;;;3.17
13219;BMP180;6674;49.152;11.918;2022-12-29T07:44:58;95633.06;;;3.23
13219;BMP180;6674;49.152;11.918;2022-12-29T07:47:26;95634.81;;;3.22
13219;BMP180;6674;49.152;11.918;2022-12-29T07:49:53;95628.75;;;3.23
13219;BMP180;6674;49.152;11.918;2022-12-29T07:52:20;95632.28;;;3.22
13219;BMP180;6674;49.152;11.918;2022-12-29T07:54:46;95621.38;;;3.28
13219;BMP180;6674;49.152;11.918;2022-12-29T07:57:13;95635.88;;;3.28
13219;BMP180;6674;49.152;11.918;2022-12-29T07:59:39;95633.34;;;3.28
13219;BMP180;6674;49.152;11.918;2022-12-29T08:02:08;95641.75;;;3.28
13219;BMP180;6674;49.152;11.918;2022-12-29T08:04:37;95649.66;;;3.33
13219;BMP180;6674;49.152;11.918;2022-12-29T08:07:03;95650.88;;;3.37
13219;BMP180;6674;49.152;11.918;2022-12-29T08:09:30;95652.72;;;3.43
13219;BMP180;6674;49.152;11.918;2022-12-29T08:11:57;95658.84;;;3.48
13219;BMP180;6674;49.152;11.918;2022-12-29T08:14:23;95655.78;;;3.53
13219;BMP180;6674;49.152;11.918;2022-12-29T08:16:50;95654.63;;;3.55
13219;BMP180;6674;49.152;11.918;2022-12-29T08:19:17;95656.63;;;3.60
13219;BMP180;6674;49.152;11.918;2022-12-29T08:21:45;95662.59;;;3.67
13219;BMP180;6674;49.152;11.918;2022-12-29T08:24:11;95665.75;;;3.69
13219;BMP180;6674;49.152;11.918;2022-12-29T08:26:38;95657.50;;;3.67
13219;BMP180;6674;49.152;11.918;2022-12-29T08:29:04;95667.31;;;3.70
13219;BMP180;6674;49.152;11.918;2022-12-29T08:31:31;95665.28;;;3.80
13219;BMP180;6674;49.152;11.918;2022-12-29T08:33:57;95665.53;;;3.85
13219;BMP180;6674;49.152;11.918;2022-12-29T08:36:25;95663.59;;;3.86
13219;BMP180;6674;49.152;11.918;2022-12-29T08:38:53;95675.06;;;3.97
13219;BMP180;6674;49.152;11.918;2022-12-29T08:41:19;95675.84;;;3.97
13219;BMP180;6674;49.152;11.918;2022-12-29T08:43:46;95675.50;;;4.00
13219;BMP180;6674;49.152;11.918;2022-12-29T08:46:13;95675.91;;;4.04
13219;BMP180;6674;49.152;11.918;2022-12-29T08:48:39;95674.78;;;4.06
13219;BMP180;6674;49.152;11.918;2022-12-29T08:51:06;95681.25;;;4.09
13219;BMP180;6674;49.152;11.918;2022-12-29T08:53:33;95677.91;;;4.08
13219;BMP180;6674;49.152;11.918;2022-12-29T08:56:02;95667.53;;;4.10
13219;BMP180;6674;49.152;11.918;2022-12-29T08:58:29;95673.25;;;4.12
13219;BMP180;6674;49.152;11.918;2022-12-29T09:00:57;95667.94;;;4.13
13219;BMP180;6674;49.152;11.918;2022-12-29T09:03:24;95677.44;;;4.19
13219;BMP180;6674;49.152;11.918;2022-12-29T09:05:52;95673.13;;;4.20
13219;BMP180;6674;49.152;11.918;2022-12-29T09:08:20;95672.34;;;4.19
13219;BMP180;6674;49.152;11.918;2022-12-29T09:10:47;95666.25;;;4.20
13219;BMP180;6674;49.152;11.918;2022-12-29T09:13:16;95670.97;;;4.23
13219;BMP180;6674;49.152;11.918;2022-12-29T09:15:42;95673.06;;;4.34
13219;BMP180;6674;49.152;11.918;2022-12-29T09:18:10;95673.22;;;4.32
13219;BMP180;6674;49.152;11.918;2022-12-29T09:20:37;95670.72;;;4.39
13219;BMP180;6674;49.152;11.918;2022-12-29T09:23:04;95662.28;;;4.38
13219;BMP180;6674;49.152;11.918;2022-12-29T09:25:31;95651.53;;;4.43
13219;BMP180;6674;49.152;11.918;2022-12-29T09:27:58;95662.22;;;4.53
13219;BMP180;6674;49.152;11.918;2022-12-29T09:30:26;95659.47;;;4.54
13219;BMP180;6674;49.152;11.918;2022-12-29T09:32:52;95653.97;;;4.57
13219;BMP180;6674;49.152;11.918;2022-12-29T09:35:19;95665.22;;;4.63
13219;BMP180;6674;49.152;11.918;2022-12-29T09:37:45;95660.56;;;4.72
13219;BMP180;6674;49.152;11.918;2022-12-29T09:40:23;95653.50;;;4.74
13219;BMP180;6674;49.152;11.918;2022-12-29T09:42:59;95664.91;;;4.78
13219;BMP180;6674;49.152;11.918;2022-12-29T09:45:33;95651.03;;;4.87
13219;BMP180;6674;49.152;11.918;2022-12-29T09:48:03;95661.31;;;4.94
13219;BMP180;6674;49.152;11.918;2022-12-29T09:50:33;95657.97;;;4.93
13219;BMP180;6674;49.152;11.918;2022-12-29T09:53:04;95641.25;;;4.97
13219;BMP180;6674;49.152;11.918;2022-12-29T09:55:36;95633.28;;;5.13
13219;BMP180;6674;49.152;11.918;2022-12-29T09:58:06;95619.50;;;5.14
13219;BMP180;6674;49.152;11.918;2022-12-29T10:00:46;95633.72;;;5.23
13219;BMP180;6674;49.152;11.918;2022-12-29T10:03:15;95629.66;;;5.41
13219;BMP180;6674;49.152;11.918;2022-12-29T10:05:46;95642.66;;;5.46
13219;BMP180;6674;49.152;11.918;2022-12-29T10:08:32;95634.03;;;5.54
13219;BMP180;6674;49.152;11.918;2022-12-29T10:11:07;95637.78;;;5.57
13219;BMP180;6674;49.152;11.918;2022-12-29T10:13:45;95623.63;;;5.61
13219;BMP180;6674;49.152;11.918;2022-12-29T10:16:18;95632.69;;;5.70
13219;BMP180;6674;49.152;11.918;2022-12-29T10:18:59;95619.19;;;5.83
13219;BMP180;6674;49.152;11.918;2022-12-29T10:21:34;95626.50;;;5.92
13219;BMP180;6674;49.152;11.918;2022-12-29T10:24:07;95619.22;;;5.96
13219;BMP180;6674;49.152;11.918;2022-12-29T10:26:39;95624.72;;;5.99
13219;BMP180;6674;49.152;11.918;2022-12-29T10:29:13;95613.28;;;6.01
13219;BMP180;6674;49.152;11.918;2022-12-29T10:31:44;95602.66;;;6.11
13219;BMP180;6674;49.152;11.918;2022-12-29T10:34:18;95611.31;;;6.10
13219;BMP180;6674;49.152;11.918;2022-12-29T10:36:48;95599.53;;;6.15
13219;BMP180;6674;49.152;11.918;2022-12-29T10:39:20;95601.91;;;6.23
13219;BMP180;6674;49.152;11.918;2022-12-29T10:41:50;95600.69;;;6.26
13219;BMP180;6674;49.152;11.918;2022-12-29T10:44:18;95604.47;;;6.30
13219;BMP180;6674;49.152;11.918;2022-12-29T10:46:56;95592.44;;;6.37
13219;BMP180;6674;49.152;11.918;2022-12-29T10:49:24;95598.53;;;6.42
13219;BMP180;6674;49.152;11.918;2022-12-29T10:51:55;95592.81;;;6.46
13219;BMP180;6674;49.152;11.918;2022-12-29T10:54:26;95588.66;;;6.52
13219;BMP180;6674;49.152;11.918;2022-12-29T10:56:57;95593.00;;;6.64
13219;BMP180;6674;49.152;11.918;2022-12-29T10:59:29;95591.19;;;6.71
13219;BMP180;6674;49.152;11.918;2022-12-29T11:02:00;95584.84;;;6.93
13219;BMP180;6674;49.152;11.918;2022-12-29T11:04:39;95582.44;;;7.11
13219;BMP180;6674;49.152;11.918;2022-12-29T11:07:09;95584.31;;;7.28
13219;BMP180;6674;49.152;11.918;2022-12-29T11:09:37;95593.75;;;7.40
13219;BMP180;6674;49.152;11.918;2022-12-29T11:12:22;95590.91;;;7.55
13219;BMP180;6674;49.152;11.918;2022-12-29T11:15:01;95589.03;;;7.68
13219;BMP180;6674;49.152;11.918;2022-12-29T11:17:30;95574.16;;;7.83
13219;BMP180;6674;49.152;11.918;2022-12-29T11:19:56;95579.22;;;7.89
13219;BMP180;6674;49.152;11.918;2022-12-29T11:22:24;95588.81;;;8.07
13219;BMP180;6674;49.152;11.918;2022-12-29T11:24:53;95587.56;;;8.16
13219;BMP180;6674;49.152;11.918;2022-12-29T11:27:22;95574.09;;;8.20
13219;BMP180;6674;49.152;11.918;2022-12-29T11:29:50;95578.06;;;8.22
13219;BMP180;6674;49.152;11.918;2022-12-29T11:32:19;95570.22;;;8.35
13219;BMP180;6674;49.152;11.918;2022-12-29T11:34:48;95572.81;;;8.53
13219;BMP180;6674;49.152;11.918;2022-12-29T11:37:17;95560.00;;;8.71
13219;BMP180;6674;49.152;11.918;2022-12-29T11:39:50;95566.38;;;8.86
13219;BMP180;6674;49.152;11.918;2022-12-29T11:42:20;95557.28;;;9.02
13219;BMP180;6674;49.152;11.918;2022-12-29T11:44:49;95565.50;;;9.10
13219;BMP180;6674;49.152;11.918;2022-12-29T11:47:25;95550.38;;;9.20
13219;BMP180;6674;49.152;11.918;2022-12-29T11:49:56;95549.53;;;9.37
13219;BMP180;6674;49.152;11.918;2022-12-29T11:52:26;95560.34;;;9.57
13219;BMP180;6674;49.152;11.918;2022-12-29T11:54:53;95556.47;;;9.66
13219;BMP180;6674;49.152;11.918;2022-12-29T11:57:22;95547.94;;;9.83
13219;BMP180;6674;49.152;11.918;2022-12-29T11:59:51;95557.69;;;9.92
13219;BMP180;6674;49.152;11.918;2022-12-29T12:02:34;95552.22;;;10.00
13219;BMP180;6674;49.152;11.918;2022-12-29T12:05:09;95550.34;;;10.07
13219;BMP180;6674;49.152;11.918;2022-12-29T12:07:42;95544.88;;;10.15
13219;BMP180;6674;49.152;11.918;2022-12-29T12:10:16;95562.25;;;10.20
13219;BMP180;6674;49.152;11.918;2022-12-29T12:12:47;95548.72;;;10.35
13219;BMP180;6674;49.152;11.918;2022-12-29T12:15:20;95536.03;;;10.57
13219;BMP180;6674;49.152;11.918;2022-12-29T12:17:52;95544.53;;;10.69
13219;BMP180;6674;49.152;11.918;2022-12-29T12:20:24;95530.31;;;10.66
13219;BMP180;6674;49.152;11.918;2022-12-29T12:22:59;95524.69;;;10.80
13219;BMP180;6674;49.152;11.918;2022-12-29T12:25:31;95529.59;;;10.82
13219;BMP180;6674;49.152;11.918;2022-12-29T12:28:05;95523.78;;;10.75
13219;BMP180;6674;49.152;11.918;2022-12-29T12:30:38;95525.94;;;10.67
13219;BMP180;6674;49.152;11.918;2022-12-29T12:33:15;95527.16;;;10.64
13219;BMP180;6674;49.152;11.918;2022-12-29T12:35:53;95513.94;;;10.61
13219;BMP180;6674;49.152;11.918;2022-12-29T12:38:28;95514.75;;;10.50
13219;BMP180;6674;49.152;11.918;2022-12-29T12:41:08;95519.78;;;10.56
13219;BMP180;6674;49.152;11.918;2022-12-29T12:43:43;95519.00;;;10.56
13219;BMP180;6674;49.152;11.918;2022-12-29T12:46:27;95524.38;;;10.43
13219;BMP180;6674;49.152;11.918;2022-12-29T12:49:08;95514.88;;;10.43
13219;BMP180;6674;49.152;11.918;2022-12-29T12:51:45;95522.25;;;10.51
13219;BMP180;6674;49.152;11.918;2022-12-29T12:54:31;95516.75;;;10.48
13219;BMP180;6674;49.152;11.918;2022-12-29T12:57:08;95521.91;;;10.48
13219;BMP180;6674;49.152;11.918;2022-12-29T12:59:49;95518.78;;;10.46
13219;BMP180;6674;49.152;11.918;2022-12-29T13:02:29;95515.19;;;10.47
13219;BMP180;6674;49.152;11.918;2022-12-29T13:05:13;95515.31;;;10.52
13219;BMP180;6674;49.152;11.918;2022-12-29T13:07:55;95517.66;;;10.53
13219;BMP180;6674;49.152;11.918;2022-12-29T13:10:35;95520.00;;;10.55
13219;BMP180;6674;49.152;11.918;2022-12-29T13:13:27;95517.00;;;10.58
13219;BMP180;6674;49.152;11.918;2022-12-29T13:16:03;95509.47;;;10.68
13219;BMP180;6674;49.152;11.918;2022-12-29T13:18:37;95516.63;;;10.66
13219;BMP180;6674;49.152;11.918;2022-12-29T13:21:17;95508.88;;;10.66
13219;BMP180;6674;49.152;11.918;2022-12-29T13:23:50;95518.75;;;10.69
13219;BMP180;6674;49.152;11.918;2022-12-29T13:26:24;95512.81;;;10.68
13219;BMP180;6674;49.152;11.918;2022-12-29T13:28:56;95509.25;;;10.69
13219;BMP180;6674;49.152;11.918;2022-12-29T13:31:30;95510.91;;;10.64
13219;BMP180;6674;49.152;11.918;2022-12-29T13:34:12;95506.88;;;10.68
13219;BMP180;6674;49.152;11.918;2022-12-29T13:36:43;95503.72;;;10.66
13219;BMP180;6674;49.152;11.918;2022-12-29T13:39:16;95510.34;;;10.62
13219;BMP180;6674;49.152;11.918;2022-12-29T13:41:48;95503.28;;;10.57
13219;BMP180;6674;49.152;11.918;2022-12-29T13:44:19;95511.47;;;10.54
13219;BMP180;6674;49.152;11.918;2022-12-29T13:46:48;95513.06;;;10.55
13219;BMP180;6674;49.152;11.918;2022-12-29T13:49:18;95505.75;;;10.52
13219;BMP180;6674;49.152;11.918;2022-12-29T13:51:48;95517.53;;;10.48
13219;BMP180;6674;49.152;11.918;2022-12-29T13:54:30;95514.28;;;10.53
13219;BMP180;6674;49.152;11.918;2022-12-29T13:57:05;95518.78;;;10.46
13219;BMP180;6674;49.152;11.918;2022-12-29T13:59:40;95518.31;;;10.49
13219;BMP180;6674;49.152;11.918;2022-12-29T14:02:19;95520.91;;;10.49
13219;BMP180;6674;49.152;11.918;2022-12-29T14:04:59;95517.88;;;10.52
13219;BMP180;6674;49.152;11.918;2022-12-29T14:07:27;95513.16;;;10.49
13219;BMP180;6674;49.152;11.918;2022-12-29T14:09:56;95511.69;;;10.41
13219;BMP180;6674;49.152;11.918;2022-12-29T14:12:35;95518.00;;;10.45
13219;BMP180;6674;49.152;11.918;2022-12-29T14:15:15;95519.78;;;10.45
13219;BMP180;6674;49.152;11.918;2022-12-29T14:17:43;95517.09;;;10.40
13219;BMP180;6674;49.152;11.918;2022-12-29T14:20:17;95524.47;;;10.36
13219;BMP180;6674;49.152;11.918;2022-12-29T14:22:56;95519.00;;;10.33
13219;BMP180;6674;49.152;11.918;2022-12-29T14:26:09;95527.88;;;10.37
13219;BMP180;6674;49.152;11.918;2022-12-29T14:28:38;95526.84;;;10.38
13219;BMP180;6674;49.152;11.918;2022-12-29T14:31:05;95521.69;;;10.38
13219;BMP180;6674;49.152;11.918;2022-12-29T14:33:33;95529.41;;;10.38
13219;BMP180;6674;49.152;11.918;2022-12-29T14:36:19;95534.91;;;10.30
13219;BMP180;6674;49.152;11.918;2022-12-29T14:38:46;95535.72;;;10.31
13219;BMP180;6674;49.152;11.918;2022-12-29T14:41:26;95540.06;;;10.30
13219;BMP180;6674;49.152;11.918;2022-12-29T14:43:56;95548.16;;;10.22